Wasilla, Alaska
Current Conditions -  °F | °C
As of 8:16 PM on Wednesday 22 Oct 2014 (Local Time) from PAWS Reporting Station
Clear Clear  
Wind Chill: 30°   Ceiling: Unl
Heat Index: 30°   Visibility: 10mi
Dew Point: 19°   Wind: 0mph
Humidity: 64%   Direction: NA
Pressure: 29.41"   Gusts: NA
Location:  61.58°N, 149.45°W
Report Text: PAWS 230416Z AUTO 00000KT 10SM CLR M01/M07 A2941 RMK AO1
Loading
Personal Weather Stations






























Interactive Weather Map New forecast layout! Learn more

10-Day Weather Forecast

Advertisements
Track Severe Weather on mobile